createdAt,value
2023-01-11T00:02:30.561Z,4.96
2023-01-11T00:06:06.409Z,5.05
2023-01-11T00:09:19.728Z,4.91
2023-01-11T00:12:39.499Z,5.08
2023-01-11T00:15:50.246Z,5.01
2023-01-11T00:18:57.569Z,5.03
2023-01-11T00:22:01.294Z,4.99
2023-01-11T00:25:24.408Z,4.87
2023-01-11T00:28:44.211Z,4.93
2023-01-11T00:31:56.913Z,4.94
2023-01-11T00:35:14.351Z,5.04
2023-01-11T00:38:57.195Z,5.03
2023-01-11T00:42:33.091Z,5.00
2023-01-11T00:45:55.314Z,4.99
2023-01-11T00:49:02.524Z,4.85
2023-01-11T00:52:24.032Z,4.97
2023-01-11T00:55:43.043Z,5.06
2023-01-11T00:58:46.083Z,4.99
2023-01-11T01:01:50.347Z,5.03
2023-01-11T01:05:00.546Z,4.99
2023-01-11T01:08:07.502Z,5.07
2023-01-11T01:11:14.601Z,4.90
2023-01-11T01:14:31.110Z,4.90
2023-01-11T01:17:39.462Z,5.06
2023-01-11T01:21:02.162Z,4.87
2023-01-11T01:24:24.084Z,4.90
2023-01-11T01:27:48.035Z,4.80
2023-01-11T01:31:10.090Z,4.92
2023-01-11T01:34:31.352Z,4.86
2023-01-11T01:37:54.176Z,5.03
2023-01-11T01:41:16.282Z,4.81
2023-01-11T01:44:59.112Z,4.74
2023-01-11T01:48:13.109Z,4.80
2023-01-11T01:51:24.178Z,4.76
2023-01-11T01:54:46.046Z,4.71
2023-01-11T01:58:08.102Z,4.80
2023-01-11T02:01:47.380Z,4.76
2023-01-11T02:04:57.521Z,4.59
2023-01-11T02:08:19.023Z,4.66
2023-01-11T02:11:38.821Z,4.62
2023-01-11T02:14:57.057Z,4.59
2023-01-11T02:18:12.441Z,4.60
2023-01-11T02:21:37.073Z,4.63
2023-01-11T02:25:08.130Z,4.59
2023-01-11T02:28:38.453Z,4.52
2023-01-11T02:32:35.028Z,4.51
2023-01-11T02:36:09.013Z,4.54
2023-01-11T02:39:36.851Z,4.44
2023-01-11T02:43:04.985Z,4.39
2023-01-11T02:46:33.113Z,4.42
2023-01-11T02:50:04.275Z,4.45
2023-01-11T02:53:28.713Z,4.26
2023-01-11T02:56:39.051Z,4.31
2023-01-11T02:59:43.030Z,4.19
2023-01-11T03:03:19.835Z,4.26
2023-01-11T03:06:35.370Z,4.17
2023-01-11T03:09:55.804Z,4.20
2023-01-11T03:13:44.094Z,4.24
2023-01-11T03:17:17.791Z,4.20
2023-01-11T03:20:53.556Z,4.17
2023-01-11T03:24:12.427Z,4.41
2023-01-11T03:27:33.742Z,4.17
2023-01-11T03:30:52.998Z,4.31
2023-01-11T03:34:33.452Z,4.14
2023-01-11T03:38:03.097Z,4.23
2023-01-11T03:41:19.318Z,4.32
2023-01-11T03:44:46.110Z,4.27
2023-01-11T03:48:27.841Z,4.14
2023-01-11T03:52:02.875Z,4.14
2023-01-11T03:55:16.664Z,4.12
2023-01-11T03:58:34.791Z,4.16
2023-01-11T04:02:06.676Z,4.13
2023-01-11T04:05:11.406Z,4.10
2023-01-11T04:08:15.155Z,4.01
2023-01-11T04:11:26.417Z,4.10
2023-01-11T04:14:49.929Z,4.08
2023-01-11T04:18:16.857Z,4.00
2023-01-11T04:21:26.322Z,4.02
2023-01-11T04:24:41.757Z,3.83
2023-01-11T04:28:15.788Z,4.08
2023-01-11T04:31:19.475Z,4.10
2023-01-11T04:34:23.762Z,4.00
2023-01-11T04:37:30.479Z,3.99
2023-01-11T04:40:53.704Z,4.01
2023-01-11T04:44:14.651Z,3.88
2023-01-11T04:47:38.737Z,3.91
2023-01-11T04:50:49.211Z,4.06
2023-01-11T04:53:53.848Z,4.01
2023-01-11T04:56:59.952Z,4.09
2023-01-11T05:00:22.424Z,3.94
2023-01-11T05:03:43.676Z,3.97
2023-01-11T05:06:56.380Z,4.05
2023-01-11T05:10:13.692Z,4.00
2023-01-11T05:13:17.382Z,4.00
2023-01-11T05:16:26.428Z,3.81
2023-01-11T05:19:39.958Z,3.83
2023-01-11T05:22:46.743Z,3.84
2023-01-11T05:25:53.876Z,3.78
2023-01-11T05:29:04.382Z,3.81
2023-01-11T05:32:20.667Z,3.78
2023-01-11T05:35:40.603Z,3.71
2023-01-11T05:39:08.387Z,3.76
2023-01-11T05:42:22.281Z,3.65
2023-01-11T05:45:48.294Z,3.71
2023-01-11T05:48:59.532Z,3.69
2023-01-11T05:52:23.521Z,3.70
2023-01-11T05:56:08.617Z,3.71
2023-01-11T05:59:22.881Z,3.61
2023-01-11T06:02:45.028Z,3.62
2023-01-11T06:06:07.248Z,3.66
2023-01-11T06:09:29.597Z,3.55
2023-01-11T06:12:50.525Z,3.63
2023-01-11T06:16:02.589Z,3.60
2023-01-11T06:19:06.313Z,3.62
2023-01-11T06:22:36.344Z,3.61
2023-01-11T06:26:02.892Z,3.69
2023-01-11T06:29:38.478Z,3.54
2023-01-11T06:33:13.505Z,3.48
2023-01-11T06:36:32.577Z,3.50
2023-01-11T06:39:53.738Z,3.52
2023-01-11T06:43:07.577Z,3.53
2023-01-11T06:46:33.474Z,3.50
2023-01-11T06:50:22.354Z,3.58
2023-01-11T06:53:47.031Z,3.73
2023-01-11T06:57:03.206Z,3.59
2023-01-11T07:00:19.822Z,3.61
2023-01-11T07:03:48.123Z,3.81
2023-01-11T07:07:08.923Z,3.72
2023-01-11T07:14:46.879Z,3.74
2023-01-11T07:18:06.973Z,3.57
2023-01-11T07:21:44.733Z,3.72
2023-01-11T07:25:15.348Z,3.81
2023-01-11T07:28:38.548Z,3.97
2023-01-11T07:31:46.535Z,3.98
2023-01-11T07:34:51.702Z,4.03
2023-01-11T07:38:00.623Z,3.95
2023-01-11T07:42:19.994Z,4.06
2023-01-11T07:45:45.347Z,4.09
2023-01-11T07:50:04.296Z,4.18
2023-01-11T07:53:17.587Z,4.16
2023-01-11T07:56:34.729Z,4.28
2023-01-11T08:00:36.549Z,4.28
2023-01-11T08:03:51.645Z,4.85
2023-01-11T08:06:54.821Z,4.70
2023-01-11T08:10:03.509Z,4.60
2023-01-11T08:14:19.634Z,4.45
2023-01-11T08:17:31.994Z,4.50
2023-01-11T08:20:51.602Z,4.62
2023-01-11T08:24:20.555Z,4.51
2023-01-11T08:28:03.269Z,4.44
2023-01-11T08:31:09.180Z,4.38
2023-01-11T08:34:29.711Z,4.39
2023-01-11T08:37:52.061Z,4.68
2023-01-11T08:41:14.793Z,4.77
2023-01-11T08:45:35.205Z,4.82
2023-01-11T08:49:03.687Z,4.82
2023-01-11T08:52:31.785Z,4.76
2023-01-11T08:57:00.976Z,4.86
2023-01-11T09:01:07.068Z,4.87
2023-01-11T09:04:24.775Z,4.78
2023-01-11T09:07:31.693Z,4.99
2023-01-11T09:10:45.276Z,5.01
2023-01-11T09:14:05.731Z,5.06
2023-01-11T09:17:25.345Z,5.21
2023-01-11T09:20:39.356Z,5.33
2023-01-11T09:24:22.009Z,5.38
2023-01-11T09:27:31.738Z,5.53
2023-01-11T09:30:52.635Z,5.81
2023-01-11T09:34:09.043Z,5.87
2023-01-11T09:37:33.298Z,6.07
2023-01-11T09:41:39.180Z,6.26
2023-01-11T09:45:33.671Z,6.52
2023-01-11T09:49:03.364Z,6.75
2023-01-11T09:52:36.420Z,6.78
2023-01-11T09:55:47.506Z,6.87
2023-01-11T09:59:48.650Z,6.98
2023-01-11T10:03:30.865Z,7.14
2023-01-11T10:07:17.326Z,7.24
2023-01-11T10:18:27.482Z,7.53
2023-01-11T10:19:18.528Z,7.54
2023-01-11T10:22:34.104Z,7.65
2023-01-11T10:25:50.855Z,7.75
2023-01-11T10:51:47.766Z,8.41
2023-01-11T10:55:27.504Z,8.59
2023-01-11T10:59:24.918Z,8.66
2023-01-11T11:02:51.064Z,8.81
2023-01-11T11:06:33.579Z,8.80
2023-01-11T11:10:04.501Z,8.67
2023-01-11T11:17:54.078Z,8.38
2023-01-11T11:21:40.312Z,8.53
2023-01-11T11:25:29.690Z,8.50
2023-01-11T11:29:08.671Z,8.85
2023-01-11T11:32:41.924Z,8.85
2023-01-11T11:36:10.408Z,9.01
2023-01-11T11:44:37.237Z,9.29
2023-01-11T11:47:41.440Z,9.08
2023-01-11T11:51:14.125Z,9.40
2023-01-11T11:54:30.265Z,9.49
2023-01-11T11:58:03.685Z,9.45
2023-01-11T12:01:40.743Z,9.70
2023-01-11T12:04:53.844Z,9.76
2023-01-11T12:08:25.106Z,9.96
2023-01-11T12:11:39.323Z,9.99
2023-01-11T12:14:42.960Z,10.09
2023-01-11T12:17:46.466Z,10.12
2023-01-11T12:25:29.309Z,10.30
2023-01-11T12:28:52.098Z,10.39
2023-01-11T12:32:29.436Z,10.42
2023-01-11T12:36:17.468Z,10.30
2023-01-11T12:40:02.015Z,10.43
2023-01-11T12:43:31.007Z,10.38
2023-01-11T12:47:04.225Z,10.12
2023-01-11T12:50:22.639Z,10.00
2023-01-11T12:53:28.875Z,9.98
2023-01-11T12:56:55.034Z,9.87
2023-01-11T13:00:40.738Z,9.78
2023-01-11T13:04:42.950Z,9.78
2023-01-11T13:09:16.660Z,9.84
2023-01-11T13:12:51.350Z,9.79
2023-01-11T13:20:58.851Z,9.71
2023-01-11T13:24:31.258Z,9.78
2023-01-11T13:27:46.323Z,9.64
2023-01-11T13:31:27.411Z,9.66
2023-01-11T13:35:04.181Z,9.63
2023-01-11T13:38:51.970Z,9.31
2023-01-11T13:42:04.659Z,9.47
2023-01-11T13:45:20.040Z,9.37
2023-01-11T13:48:48.517Z,9.41
2023-01-11T13:52:22.995Z,9.36
2023-01-11T13:55:46.858Z,9.35
2023-01-11T13:59:17.899Z,9.22
2023-01-11T14:03:29.419Z,9.25
2023-01-11T14:06:43.119Z,9.22
2023-01-11T14:10:28.213Z,9.02
2023-01-11T14:14:13.757Z,8.98
2023-01-11T14:17:49.584Z,8.89
2023-01-11T14:21:11.684Z,9.05
2023-01-11T14:24:23.819Z,8.91
2023-01-11T14:27:33.447Z,8.80
2023-01-11T14:30:55.504Z,8.62
2023-01-11T14:34:32.768Z,8.73
2023-01-11T14:38:04.464Z,8.59
2023-01-11T14:41:48.136Z,8.49
2023-01-11T14:45:36.970Z,8.55
2023-01-11T14:48:58.737Z,8.48
2023-01-11T14:52:18.564Z,8.41
2023-01-11T14:55:35.707Z,8.25
2023-01-11T14:59:03.467Z,8.40
2023-01-11T15:02:19.257Z,8.31
2023-01-11T15:05:36.164Z,8.21
2023-01-11T15:09:02.011Z,8.28
2023-01-11T15:12:26.251Z,8.15
2023-01-11T15:15:58.371Z,8.07
2023-01-11T15:19:08.077Z,7.98
2023-01-11T15:22:28.592Z,7.86
2023-01-11T15:25:49.276Z,7.77
2023-01-11T15:29:04.133Z,7.79
2023-01-11T15:32:24.288Z,7.54
2023-01-11T15:35:44.018Z,7.64
2023-01-11T15:39:09.265Z,7.56
2023-01-11T15:43:01.217Z,7.61
2023-01-11T15:46:52.390Z,7.61
2023-01-11T15:50:41.952Z,7.47
2023-01-11T15:54:08.562Z,7.26
2023-01-11T15:57:24.297Z,7.38
2023-01-11T16:01:11.719Z,7.36
2023-01-11T16:04:41.495Z,7.35
2023-01-11T16:08:12.903Z,7.28
2023-01-11T16:11:52.891Z,7.25
2023-01-11T16:15:45.009Z,7.22
2023-01-11T16:18:59.995Z,7.07
2023-01-11T16:22:25.511Z,7.05
2023-01-11T16:25:40.913Z,7.00
2023-01-11T16:28:57.328Z,6.98
2023-01-11T16:32:39.171Z,6.93
2023-01-11T16:35:49.900Z,6.83
2023-01-11T16:39:13.839Z,6.77
2023-01-11T16:42:34.875Z,6.76
2023-01-11T16:45:53.802Z,6.82
2023-01-11T16:49:18.813Z,6.74
2023-01-11T16:52:41.958Z,6.75
2023-01-11T16:56:24.146Z,6.63
2023-01-11T16:59:34.076Z,6.55
2023-01-11T17:02:51.061Z,6.51
2023-01-11T17:06:11.841Z,6.52
2023-01-11T17:09:21.718Z,6.47
2023-01-11T17:12:26.638Z,6.43
2023-01-11T17:16:00.653Z,6.39
2023-01-11T17:19:41.911Z,6.49
2023-01-11T17:23:01.796Z,6.32
2023-01-11T17:26:26.171Z,6.35
2023-01-11T17:29:40.983Z,6.38
2023-01-11T17:32:47.919Z,6.30
2023-01-11T17:35:53.505Z,6.16
2023-01-11T17:39:00.161Z,6.13
2023-01-11T17:42:29.633Z,6.10
2023-01-11T17:45:35.178Z,6.02
2023-01-11T17:48:56.008Z,6.03
2023-01-11T17:52:20.342Z,6.09
2023-01-11T17:55:32.868Z,6.06
2023-01-11T17:58:40.992Z,5.91
2023-01-11T18:02:08.972Z,5.88
2023-01-11T18:05:18.172Z,5.83
2023-01-11T18:08:25.268Z,5.90
2023-01-11T18:11:42.004Z,5.82
2023-01-11T18:14:53.326Z,5.84
2023-01-11T18:17:57.588Z,5.79
2023-01-11T18:21:00.825Z,5.74
2023-01-11T18:24:11.980Z,5.62
2023-01-11T18:27:28.864Z,5.74
2023-01-11T18:30:44.132Z,5.64
2023-01-11T18:33:53.926Z,5.62
2023-01-11T18:37:08.686Z,5.67
2023-01-11T18:40:19.825Z,5.57
2023-01-11T18:43:33.328Z,5.58
2023-01-11T18:46:40.853Z,5.52
2023-01-11T18:49:57.470Z,5.45
2023-01-11T18:53:00.796Z,5.34
2023-01-11T18:56:05.568Z,5.43
2023-01-11T18:59:18.043Z,5.15
2023-01-11T19:02:35.091Z,5.06
2023-01-11T19:05:51.415Z,5.35
2023-01-11T19:08:58.278Z,5.29
2023-01-11T19:12:05.651Z,5.21
2023-01-11T19:15:15.568Z,5.16
2023-01-11T19:18:19.993Z,5.15
2023-01-11T19:21:43.511Z,5.11
2023-01-11T19:25:21.578Z,5.09
2023-01-11T19:28:41.592Z,4.97
2023-01-11T19:32:02.412Z,4.92
2023-01-11T19:35:27.569Z,4.81
2023-01-11T19:38:51.447Z,4.84
2023-01-11T19:41:58.068Z,4.79
2023-01-11T19:45:06.428Z,4.61
2023-01-11T19:48:11.109Z,4.63
2023-01-11T19:51:20.963Z,4.55
2023-01-11T19:54:44.784Z,4.51
2023-01-11T19:58:18.299Z,4.63
2023-01-11T20:01:38.933Z,4.59
2023-01-11T20:04:56.425Z,4.51
2023-01-11T20:08:05.968Z,4.54
2023-01-11T20:11:14.505Z,4.55
2023-01-11T20:14:22.702Z,4.43
2023-01-11T20:17:25.909Z,4.52
2023-01-11T20:20:33.636Z,4.50
2023-01-11T20:23:38.769Z,4.39
2023-01-11T20:26:55.443Z,4.32
2023-01-11T20:30:16.295Z,4.33
2023-01-11T20:33:47.447Z,4.22
2023-01-11T20:37:02.187Z,4.08
2023-01-11T20:40:21.352Z,3.91
2023-01-11T20:43:50.134Z,4.11
2023-01-11T20:47:00.144Z,4.14
2023-01-11T20:50:04.211Z,4.05
2023-01-11T20:53:14.114Z,4.08
2023-01-11T20:56:30.676Z,4.13
2023-01-11T20:59:37.015Z,4.10
2023-01-11T21:03:04.762Z,4.12
2023-01-11T21:06:23.498Z,4.08
2023-01-11T21:09:30.285Z,3.97
2023-01-11T21:15:46.450Z,3.93
2023-01-11T21:19:09.195Z,3.99
2023-01-11T21:22:34.180Z,3.95
2023-01-11T21:26:00.305Z,3.91
2023-01-11T21:29:05.520Z,3.84
2023-01-11T21:32:09.236Z,3.80
2023-01-11T21:35:18.762Z,3.71
2023-01-11T21:38:42.692Z,3.48
2023-01-11T21:42:06.117Z,3.42
2023-01-11T21:45:21.032Z,3.48
2023-01-11T21:48:44.126Z,3.50
2023-01-11T21:52:00.139Z,3.35
2023-01-11T21:55:21.359Z,3.24
2023-01-11T21:58:37.550Z,3.16
2023-01-11T22:01:43.780Z,3.11
2023-01-11T22:04:48.297Z,2.92
2023-01-11T22:07:58.196Z,2.86
2023-01-11T22:11:10.061Z,2.98
2023-01-11T22:14:14.441Z,3.13
2023-01-11T22:17:24.433Z,3.21
2023-01-11T22:20:48.046Z,3.04
2023-01-11T22:24:10.424Z,3.13
2023-01-11T22:27:27.042Z,3.13
2023-01-11T22:30:58.822Z,3.15
2023-01-11T22:34:02.918Z,3.16
2023-01-11T22:37:30.786Z,3.18
2023-01-11T22:41:05.151Z,3.15
2023-01-11T22:44:26.023Z,3.11
2023-01-11T22:47:45.911Z,3.22
2023-01-11T22:51:11.763Z,3.19
2023-01-11T22:54:22.981Z,3.07
2023-01-11T22:57:26.981Z,3.15
2023-01-11T23:00:31.787Z,3.17
2023-01-11T23:03:39.452Z,3.10
2023-01-11T23:06:43.518Z,3.06
2023-01-11T23:09:47.244Z,3.05
2023-01-11T23:13:15.891Z,3.14
2023-01-11T23:16:30.181Z,2.99
2023-01-11T23:19:47.875Z,3.02
2023-01-11T23:23:08.917Z,3.14
2023-01-11T23:26:33.912Z,3.10
2023-01-11T23:30:03.807Z,3.26
2023-01-11T23:33:25.732Z,3.28
2023-01-11T23:36:47.801Z,3.27
2023-01-11T23:40:09.773Z,3.24
2023-01-11T23:43:26.030Z,3.24
2023-01-11T23:47:02.984Z,3.19
2023-01-11T23:50:12.964Z,3.15
2023-01-11T23:53:15.795Z,3.12
2023-01-11T23:56:22.828Z,3.08
2023-01-11T23:59:32.465Z,2.94
